Windflight — WDF6324 — position and weather

sailwx.info

Track history (hours):
 
Tides and Currents Weather Stations Pressure Air Temp Water Temp Dewpoint Dewpoint Depression Visibility Wind Speed Wind Dir Waves Ship Positions

Windflight

Owner: Windflight Inc., Medina, WA. More information available from US FCC via Universal Licensing System and Coast Guard Vessel Documentation Center.

Last reported at 2016-Jun-25 06:33 UTC. Time now 2016-Jun-25 08:53 UTC.
Position N 49°38' W 124°01'.

Length 21 m.

Type: Pleasure craft. MMSI: 367473060.

Date/timePositionNaut miles runAvg speedWind from/ knotsBaromVisibWave heightAir tempDewpointWater temp
2016-Jun-25 06:33N 49°38' W 124°01'0 0.0
2016-Jun-25 05:33N 49°38' W 124°01'0 0.0
2016-Jun-25 04:33N 49°38' W 124°01'0 0.0
2016-Jun-25 03:33N 49°38' W 124°01'0 0.0
2016-Jun-25 02:33N 49°38' W 124°01'0 0.0
2016-Jun-25 01:33N 49°38' W 124°01'0 0.0
2016-Jun-25 00:27N 49°38' W 124°01'0 0.0
2016-Jun-24 23:27N 49°38' W 124°01'0 0.0
2016-Jun-24 22:33N 49°38' W 124°01'3 2.9
2016-Jun-24 21:33N 49°35' W 124°03'9 8.8
2016-Jun-24 20:33N 49°29' W 123°54'9 9.1
2016-Jun-24 19:33N 49°25' W 123°42'9 9.2
2016-Jun-24 18:33N 49°21' W 123°29'9 9.1
2016-Jun-24 17:33N 49°20' W 123°15'5 5.3
2016-Jun-24 16:33N 49°18' W 123°08'0 0.0
2016-Jun-24 15:33N 49°18' W 123°08'0 0.0
2016-Jun-24 14:33N 49°18' W 123°08'0 0.0
2016-Jun-24 13:33N 49°18' W 123°08'0 0.0
2016-Jun-24 12:33N 49°18' W 123°08'0 0.0
2016-Jun-24 11:33N 49°18' W 123°08'0 0.0
2016-Jun-24 10:33N 49°18' W 123°08'0 0.0
2016-Jun-24 09:33N 49°18' W 123°08'0 0.0
2016-Jun-24 08:33N 49°18' W 123°08'0 0.0
2016-Jun-24 07:33N 49°18' W 123°08'0 0.0
2016-Jun-24 04:33N 49°18' W 123°08'0 0.0
2016-Jun-24 03:33N 49°18' W 123°08'0 0.0
2016-Jun-24 02:33N 49°18' W 123°08'0 0.0
2016-Jun-24 01:33N 49°18' W 123°08'0 0.0
2016-Jun-24 00:33N 49°18' W 123°08'0 0.0
2016-Jun-23 23:33N 49°18' W 123°08'0 0.0
2016-Jun-23 22:33N 49°18' W 123°08'0 0.0
2016-Jun-23 21:33N 49°18' W 123°08'0 0.0
2016-Jun-23 20:33N 49°18' W 123°08'0 0.0
2016-Jun-23 19:33N 49°18' W 123°08'0 0.0
2016-Jun-23 18:33N 49°18' W 123°08'0 0.0
2016-Jun-23 17:33N 49°18' W 123°08'0 0.0
2016-Jun-23 16:33N 49°18' W 123°08'0 0.0
2016-Jun-23 15:33N 49°18' W 123°08'0 0.0
2016-Jun-23 14:33N 49°18' W 123°08'0 0.0
2016-Jun-23 13:33N 49°18' W 123°08'0 0.0
2016-Jun-23 12:33N 49°18' W 123°08'0 0.0
2016-Jun-23 11:33N 49°18' W 123°08'0 0.0
2016-Jun-23 10:33N 49°18' W 123°08'0 0.0
2016-Jun-23 09:33N 49°18' W 123°08'0 0.0
2016-Jun-23 08:33N 49°18' W 123°08'0 0.0
2016-Jun-23 07:33N 49°18' W 123°08'0 0.0
2016-Jun-23 05:33N 49°18' W 123°08'0 0.0
2016-Jun-23 04:33N 49°18' W 123°08'0 0.0
2016-Jun-23 03:33N 49°18' W 123°08'0 0.0
2016-Jun-23 02:33N 49°18' W 123°08'0 0.0
2016-Jun-23 01:33N 49°18' W 123°08'0 0.0
2016-Jun-23 00:33N 49°18' W 123°08'0 0.0
2016-Jun-22 23:33N 49°18' W 123°08'0 0.0
2016-Jun-22 22:33N 49°18' W 123°08'0 0.0
2016-Jun-22 21:33N 49°18' W 123°08'0 0.0
2016-Jun-22 20:33N 49°18' W 123°08'0 0.0
2016-Jun-22 19:33N 49°18' W 123°08'0 0.0
2016-Jun-22 18:33N 49°18' W 123°08'0 0.0
2016-Jun-22 17:33N 49°18' W 123°08'0 0.0
2016-Jun-22 16:33N 49°18' W 123°08'0 0.0
2016-Jun-22 15:33N 49°18' W 123°08'0 0.0
2016-Jun-22 14:33N 49°18' W 123°08'0 0.0
2016-Jun-22 13:33N 49°18' W 123°08'0 0.0
2016-Jun-22 12:33N 49°18' W 123°08'0 0.0
2016-Jun-22 11:33N 49°18' W 123°08'0 0.0
2016-Jun-22 10:33N 49°18' W 123°08'0 0.0
2016-Jun-22 09:33N 49°18' W 123°08'0 0.0
2016-Jun-22 08:33N 49°18' W 123°08'0 0.0
2016-Jun-22 07:33N 49°18' W 123°08'0 0.0
2016-Jun-22 06:33N 49°18' W 123°08'0 0.0
2016-Jun-22 05:33N 49°18' W 123°08'0 0.0
2016-Jun-22 04:33N 49°18' W 123°08'0 0.0
2016-Jun-22 03:33N 49°18' W 123°08'0 0.0
2016-Jun-22 02:33N 49°18' W 123°08'0 0.0
2016-Jun-22 01:33N 49°18' W 123°08'0 0.0
2016-Jun-22 00:33N 49°18' W 123°08'0 0.0
2016-Jun-21 23:33N 49°18' W 123°08'0 0.0
2016-Jun-21 22:33N 49°18' W 123°08'0 0.0
2016-Jun-21 21:33N 49°18' W 123°08'1 0.7
2016-Jun-21 20:33N 49°18' W 123°07'7 7.3
2016-Jun-21 19:33N 49°17' W 123°18'8 8.3
2016-Jun-21 18:33N 49°13' W 123°29'9 8.7
2016-Jun-21 17:33N 49°09' W 123°41'7 6.5
2016-Jun-21 16:33N 49°02' W 123°40'27 1.3
2016-Jun-20 19:18N 48°39' W 123°19'7 9.1
2016-Jun-20 18:32N 48°38' W 123°08'7 7.5
2016-Jun-20 17:33N 48°33' W 123°00'1 0.9
2016-Jun-20 16:29N 48°32' W 123°00'0 0.0
2016-Jun-20 15:32N 48°32' W 123°00'0 0.0
2016-Jun-20 14:32N 48°32' W 123°00'0 0.0
2016-Jun-20 13:32N 48°32' W 123°00'0 0.0
2016-Jun-20 12:32N 48°32' W 123°00'0 0.0
2016-Jun-20 11:32N 48°32' W 123°00'0 0.0
2016-Jun-20 10:32N 48°32' W 123°00'0 0.0
2016-Jun-20 09:32N 48°32' W 123°00'0 0.0
2016-Jun-20 08:32N 48°32' W 123°00'0 0.0
2016-Jun-20 07:29N 48°32' W 123°00'0 0.0
2016-Jun-20 06:32N 48°32' W 123°00'0 0.0
2016-Jun-20 05:32N 48°32' W 123°00'0 0.0
2016-Jun-20 04:29N 48°32' W 123°00'0 0.0
2016-Jun-20 03:32N 48°32' W 123°00'0 0.0
2016-Jun-20 02:32N 48°32' W 123°00'0 0.0
2016-Jun-20 01:32N 48°32' W 123°00'0 0.0
2016-Jun-20 00:32N 48°32' W 123°00'0 0.0
2016-Jun-19 23:32N 48°32' W 123°00'0 0.0
2016-Jun-19 22:32N 48°32' W 123°00'0 0.0
2016-Jun-19 21:32N 48°32' W 123°00'0 0.0
2016-Jun-19 20:32N 48°32' W 123°00'0 0.0
2016-Jun-19 19:32N 48°32' W 123°00'0 0.0
2016-Jun-19 18:32N 48°32' W 123°00'0 0.0
2016-Jun-19 17:32N 48°32' W 123°00'0 0.0
2016-Jun-19 16:32N 48°32' W 123°00'0 0.0
2016-Jun-19 15:32N 48°32' W 123°00'0 0.0
2016-Jun-19 14:32N 48°32' W 123°00'0 0.0
2016-Jun-19 13:32N 48°32' W 123°00'0 0.0
2016-Jun-19 12:32N 48°32' W 123°00'0 0.0
2016-Jun-19 11:32N 48°32' W 123°00'0 0.0
2016-Jun-19 10:32N 48°32' W 123°00'0 0.0
2016-Jun-19 09:32N 48°32' W 123°00'0 0.0
2016-Jun-19 08:29N 48°32' W 123°00'0 0.0
2016-Jun-19 07:32N 48°32' W 123°00'0 0.0
2016-Jun-19 06:29N 48°32' W 123°00'0 0.0
2016-Jun-19 05:32N 48°32' W 123°00'0 0.0
2016-Jun-19 04:32N 48°32' W 123°00'0 0.0
2016-Jun-19 03:32N 48°32' W 123°00'0 0.0
2016-Jun-19 02:32N 48°32' W 123°00'0 0.0
2016-Jun-19 01:32N 48°32' W 123°00'0 0.0
2016-Jun-19 00:32N 48°32' W 123°00'0 0.0
2016-Jun-18 23:32N 48°32' W 123°00'0 0.0
2016-Jun-18 22:32N 48°32' W 123°00'0 0.0
2016-Jun-18 21:32N 48°32' W 123°00'0 0.0
2016-Jun-18 20:32N 48°32' W 123°00'0 0.0
2016-Jun-18 19:32N 48°32' W 123°00'0 0.0
2016-Jun-18 18:32N 48°32' W 123°00'0 0.0
2016-Jun-18 17:29N 48°32' W 123°00'0 0.0
2016-Jun-18 16:32N 48°32' W 123°00'0 0.0
2016-Jun-18 15:32N 48°32' W 123°00'0 0.0
2016-Jun-18 14:32N 48°32' W 123°00'0 0.0
2016-Jun-18 13:26N 48°32' W 123°00'0 0.0
2016-Jun-18 12:32N 48°32' W 123°00'0 0.0
2016-Jun-18 11:32N 48°32' W 123°00'0 0.0
2016-Jun-18 10:32N 48°32' W 123°00'0 0.0
2016-Jun-18 09:32N 48°32' W 123°00'0 0.0
2016-Jun-18 08:32N 48°32' W 123°00'0 0.0
2016-Jun-18 07:32N 48°32' W 123°00'0 0.0
2016-Jun-18 06:29N 48°32' W 123°00'0 0.0
2016-Jun-18 05:32N 48°32' W 123°00'0 0.0
2016-Jun-18 04:29N 48°32' W 123°00'0 0.0
2016-Jun-18 03:32N 48°32' W 123°00'0 0.0
2016-Jun-18 02:32N 48°32' W 123°00'0 0.0
2016-Jun-18 01:32N 48°32' W 123°00'0 0.0
2016-Jun-18 00:32N 48°32' W 123°00'0 0.0
2016-Jun-17 23:32N 48°32' W 123°00'0 0.0
2016-Jun-17 22:32N 48°32' W 123°00'0 0.0
2016-Jun-17 21:32N 48°32' W 123°00'1 1.4
2016-Jun-17 20:34N 48°32' W 122°58'10 9.7
2016-Jun-17 19:33N 48°23' W 122°55'26 8.3
2016-Jun-17 16:26N 48°00' W 122°35'8 9.0
2016-Jun-17 15:33N 47°54' W 122°28'9 9.0
2016-Jun-17 14:33N 47°45' W 122°25'5 4.8
2016-Jun-17 13:33N 47°41' W 122°25'0 0.0
2016-Jun-17 12:33N 47°41' W 122°25'0 0.0
2016-Jun-17 11:33N 47°41' W 122°25'0 0.0
2016-Jun-17 10:33N 47°41' W 122°25'0 0.0
2016-Jun-17 09:33N 47°41' W 122°25'0 0.0
2016-Jun-17 08:33N 47°41' W 122°25'0 0.0
2016-Jun-17 07:33N 47°41' W 122°25'0 0.0
2016-Jun-17 06:33N 47°41' W 122°25'0 0.0
2016-Jun-17 05:33N 47°41' W 122°25'0 0.0
2016-Jun-17 04:33N 47°41' W 122°25'0 0.0
2016-Jun-17 03:33N 47°41' W 122°25'0 0.0
2016-Jun-17 02:33N 47°41' W 122°25'0 0.0
2016-Jun-17 01:33N 47°41' W 122°25'0 0.0
2016-Jun-17 00:33N 47°41' W 122°25'0 0.0
2016-Jun-16 23:33N 47°41' W 122°25'0 0.0
2016-Jun-16 22:33N 47°41' W 122°25'0 0.0
2016-Jun-16 21:33N 47°41' W 122°25'0 0.0
2016-Jun-16 20:33N 47°41' W 122°25'0 0.0
2016-Jun-16 19:33N 47°41' W 122°25'0 0.0
2016-Jun-16 18:33N 47°41' W 122°25'0 0.0
2016-Jun-16 17:33N 47°41' W 122°25'0 0.0
2016-Jun-16 16:33N 47°41' W 122°25'0 0.0
2016-Jun-16 15:33N 47°41' W 122°25'0 0.0
2016-Jun-16 14:33N 47°41' W 122°25'0 0.0
2016-Jun-16 13:33N 47°41' W 122°25'0 0.0
2016-Jun-16 12:33N 47°41' W 122°25'0 0.0
2016-Jun-16 11:33N 47°41' W 122°25'0 0.0
2016-Jun-16 10:33N 47°41' W 122°25'0 0.0
2016-Jun-16 09:34N 47°41' W 122°25'0 0.0
2016-Jun-16 08:33N 47°41' W 122°25'0 0.0
2016-Jun-16 07:33N 47°41' W 122°25'0 0.0
2016-Jun-16 06:33N 47°41' W 122°25'0 0.0
2016-Jun-16 05:33N 47°41' W 122°25'0 0.0
2016-Jun-16 04:33N 47°41' W 122°25'0 0.0
2016-Jun-16 03:33N 47°41' W 122°25'0 0.0
2016-Jun-16 02:33N 47°41' W 122°25'0 0.0
2016-Jun-16 01:33N 47°41' W 122°25'0 0.0
2016-Jun-16 00:33N 47°41' W 122°25'0 0.0
2016-Jun-15 23:33N 47°41' W 122°25'0 0.0
2016-Jun-15 22:33N 47°41' W 122°25'0 0.0
2016-Jun-15 21:33N 47°41' W 122°25'0 0.0
2016-Jun-15 20:33N 47°41' W 122°25'0 0.0
2016-Jun-15 19:33N 47°41' W 122°25'0 0.0
2016-Jun-15 18:33N 47°41' W 122°25'  
Track history (hours):
 
Tides and Currents Weather Stations Pressure Air Temp Water Temp Dewpoint Dewpoint Depression Visibility Wind Speed Wind Dir Waves Ship Positions

Windflight

Owner: Windflight Inc., Medina, WA. More information available from US FCC via Universal Licensing System and Coast Guard Vessel Documentation Center.

Last reported at 2016-Jun-25 06:33 UTC. Time now 2016-Jun-25 08:53 UTC.
Position N 49°38' W 124°01'.

Length 21 m.

Type: Pleasure craft. MMSI: 367473060.

Date/timePositionNaut miles runAvg speedWind from/ knotsBaromVisibWave heightAir tempDewpointWater temp
2016-Jun-25 06:33N 49°38' W 124°01'0 0.0
2016-Jun-25 05:33N 49°38' W 124°01'0 0.0
2016-Jun-25 04:33N 49°38' W 124°01'0 0.0
2016-Jun-25 03:33N 49°38' W 124°01'0 0.0
2016-Jun-25 02:33N 49°38' W 124°01'0 0.0
2016-Jun-25 01:33N 49°38' W 124°01'0 0.0
2016-Jun-25 00:27N 49°38' W 124°01'0 0.0
2016-Jun-24 23:27N 49°38' W 124°01'0 0.0
2016-Jun-24 22:33N 49°38' W 124°01'3 2.9
2016-Jun-24 21:33N 49°35' W 124°03'9 8.8
2016-Jun-24 20:33N 49°29' W 123°54'9 9.1
2016-Jun-24 19:33N 49°25' W 123°42'9 9.2
2016-Jun-24 18:33N 49°21' W 123°29'9 9.1
2016-Jun-24 17:33N 49°20' W 123°15'5 5.3
2016-Jun-24 16:33N 49°18' W 123°08'0 0.0
2016-Jun-24 15:33N 49°18' W 123°08'0 0.0
2016-Jun-24 14:33N 49°18' W 123°08'0 0.0
2016-Jun-24 13:33N 49°18' W 123°08'0 0.0
2016-Jun-24 12:33N 49°18' W 123°08'0 0.0
2016-Jun-24 11:33N 49°18' W 123°08'0 0.0
2016-Jun-24 10:33N 49°18' W 123°08'0 0.0
2016-Jun-24 09:33N 49°18' W 123°08'0 0.0
2016-Jun-24 08:33N 49°18' W 123°08'0 0.0
2016-Jun-24 07:33N 49°18' W 123°08'0 0.0
2016-Jun-24 04:33N 49°18' W 123°08'0 0.0
2016-Jun-24 03:33N 49°18' W 123°08'0 0.0
2016-Jun-24 02:33N 49°18' W 123°08'0 0.0
2016-Jun-24 01:33N 49°18' W 123°08'0 0.0
2016-Jun-24 00:33N 49°18' W 123°08'0 0.0
2016-Jun-23 23:33N 49°18' W 123°08'0 0.0
2016-Jun-23 22:33N 49°18' W 123°08'0 0.0
2016-Jun-23 21:33N 49°18' W 123°08'0 0.0
2016-Jun-23 20:33N 49°18' W 123°08'0 0.0
2016-Jun-23 19:33N 49°18' W 123°08'0 0.0
2016-Jun-23 18:33N 49°18' W 123°08'0 0.0
2016-Jun-23 17:33N 49°18' W 123°08'0 0.0
2016-Jun-23 16:33N 49°18' W 123°08'0 0.0
2016-Jun-23 15:33N 49°18' W 123°08'0 0.0
2016-Jun-23 14:33N 49°18' W 123°08'0 0.0
2016-Jun-23 13:33N 49°18' W 123°08'0 0.0
2016-Jun-23 12:33N 49°18' W 123°08'0 0.0
2016-Jun-23 11:33N 49°18' W 123°08'0 0.0
2016-Jun-23 10:33N 49°18' W 123°08'0 0.0
2016-Jun-23 09:33N 49°18' W 123°08'0 0.0
2016-Jun-23 08:33N 49°18' W 123°08'0 0.0
2016-Jun-23 07:33N 49°18' W 123°08'0 0.0
2016-Jun-23 05:33N 49°18' W 123°08'0 0.0
2016-Jun-23 04:33N 49°18' W 123°08'0 0.0
2016-Jun-23 03:33N 49°18' W 123°08'0 0.0
2016-Jun-23 02:33N 49°18' W 123°08'0 0.0
2016-Jun-23 01:33N 49°18' W 123°08'0 0.0
2016-Jun-23 00:33N 49°18' W 123°08'0 0.0
2016-Jun-22 23:33N 49°18' W 123°08'0 0.0
2016-Jun-22 22:33N 49°18' W 123°08'0 0.0
2016-Jun-22 21:33N 49°18' W 123°08'0 0.0
2016-Jun-22 20:33N 49°18' W 123°08'0 0.0
2016-Jun-22 19:33N 49°18' W 123°08'0 0.0
2016-Jun-22 18:33N 49°18' W 123°08'0 0.0
2016-Jun-22 17:33N 49°18' W 123°08'0 0.0
2016-Jun-22 16:33N 49°18' W 123°08'0 0.0
2016-Jun-22 15:33N 49°18' W 123°08'0 0.0
2016-Jun-22 14:33N 49°18' W 123°08'0 0.0
2016-Jun-22 13:33N 49°18' W 123°08'0 0.0
2016-Jun-22 12:33N 49°18' W 123°08'0 0.0
2016-Jun-22 11:33N 49°18' W 123°08'0 0.0
2016-Jun-22 10:33N 49°18' W 123°08'0 0.0
2016-Jun-22 09:33N 49°18' W 123°08'0 0.0
2016-Jun-22 08:33N 49°18' W 123°08'0 0.0
2016-Jun-22 07:33N 49°18' W 123°08'0 0.0
2016-Jun-22 06:33N 49°18' W 123°08'0 0.0
2016-Jun-22 05:33N 49°18' W 123°08'0 0.0
2016-Jun-22 04:33N 49°18' W 123°08'0 0.0
2016-Jun-22 03:33N 49°18' W 123°08'0 0.0
2016-Jun-22 02:33N 49°18' W 123°08'0 0.0
2016-Jun-22 01:33N 49°18' W 123°08'0 0.0
2016-Jun-22 00:33N 49°18' W 123°08'0 0.0
2016-Jun-21 23:33N 49°18' W 123°08'0 0.0
2016-Jun-21 22:33N 49°18' W 123°08'0 0.0
2016-Jun-21 21:33N 49°18' W 123°08'1 0.7
2016-Jun-21 20:33N 49°18' W 123°07'7 7.3
2016-Jun-21 19:33N 49°17' W 123°18'8 8.3
2016-Jun-21 18:33N 49°13' W 123°29'9 8.7
2016-Jun-21 17:33N 49°09' W 123°41'7 6.5
2016-Jun-21 16:33N 49°02' W 123°40'27 1.3
2016-Jun-20 19:18N 48°39' W 123°19'7 9.1
2016-Jun-20 18:32N 48°38' W 123°08'7 7.5
2016-Jun-20 17:33N 48°33' W 123°00'1 0.9
2016-Jun-20 16:29N 48°32' W 123°00'0 0.0
2016-Jun-20 15:32N 48°32' W 123°00'0 0.0
2016-Jun-20 14:32N 48°32' W 123°00'0 0.0
2016-Jun-20 13:32N 48°32' W 123°00'0 0.0
2016-Jun-20 12:32N 48°32' W 123°00'0 0.0
2016-Jun-20 11:32N 48°32' W 123°00'0 0.0
2016-Jun-20 10:32N 48°32' W 123°00'0 0.0
2016-Jun-20 09:32N 48°32' W 123°00'0 0.0
2016-Jun-20 08:32N 48°32' W 123°00'0 0.0
2016-Jun-20 07:29N 48°32' W 123°00'0 0.0
2016-Jun-20 06:32N 48°32' W 123°00'0 0.0
2016-Jun-20 05:32N 48°32' W 123°00'0 0.0
2016-Jun-20 04:29N 48°32' W 123°00'0 0.0
2016-Jun-20 03:32N 48°32' W 123°00'0 0.0
2016-Jun-20 02:32N 48°32' W 123°00'0 0.0
2016-Jun-20 01:32N 48°32' W 123°00'0 0.0
2016-Jun-20 00:32N 48°32' W 123°00'0 0.0
2016-Jun-19 23:32N 48°32' W 123°00'0 0.0
2016-Jun-19 22:32N 48°32' W 123°00'0 0.0
2016-Jun-19 21:32N 48°32' W 123°00'0 0.0
2016-Jun-19 20:32N 48°32' W 123°00'0 0.0
2016-Jun-19 19:32N 48°32' W 123°00'0 0.0
2016-Jun-19 18:32N 48°32' W 123°00'0 0.0
2016-Jun-19 17:32N 48°32' W 123°00'0 0.0
2016-Jun-19 16:32N 48°32' W 123°00'0 0.0
2016-Jun-19 15:32N 48°32' W 123°00'0 0.0
2016-Jun-19 14:32N 48°32' W 123°00'0 0.0
2016-Jun-19 13:32N 48°32' W 123°00'0 0.0
2016-Jun-19 12:32N 48°32' W 123°00'0 0.0
2016-Jun-19 11:32N 48°32' W 123°00'0 0.0
2016-Jun-19 10:32N 48°32' W 123°00'0 0.0
2016-Jun-19 09:32N 48°32' W 123°00'0 0.0
2016-Jun-19 08:29N 48°32' W 123°00'0 0.0
2016-Jun-19 07:32N 48°32' W 123°00'0 0.0
2016-Jun-19 06:29N 48°32' W 123°00'0 0.0
2016-Jun-19 05:32N 48°32' W 123°00'0 0.0
2016-Jun-19 04:32N 48°32' W 123°00'0 0.0
2016-Jun-19 03:32N 48°32' W 123°00'0 0.0
2016-Jun-19 02:32N 48°32' W 123°00'0 0.0
2016-Jun-19 01:32N 48°32' W 123°00'0 0.0
2016-Jun-19 00:32N 48°32' W 123°00'0 0.0
2016-Jun-18 23:32N 48°32' W 123°00'0 0.0
2016-Jun-18 22:32N 48°32' W 123°00'0 0.0
2016-Jun-18 21:32N 48°32' W 123°00'0 0.0
2016-Jun-18 20:32N 48°32' W 123°00'0 0.0
2016-Jun-18 19:32N 48°32' W 123°00'0 0.0
2016-Jun-18 18:32N 48°32' W 123°00'0 0.0
2016-Jun-18 17:29N 48°32' W 123°00'0 0.0
2016-Jun-18 16:32N 48°32' W 123°00'0 0.0
2016-Jun-18 15:32N 48°32' W 123°00'0 0.0
2016-Jun-18 14:32N 48°32' W 123°00'0 0.0
2016-Jun-18 13:26N 48°32' W 123°00'0 0.0
2016-Jun-18 12:32N 48°32' W 123°00'0 0.0
2016-Jun-18 11:32N 48°32' W 123°00'0 0.0
2016-Jun-18 10:32N 48°32' W 123°00'0 0.0
2016-Jun-18 09:32N 48°32' W 123°00'0 0.0
2016-Jun-18 08:32N 48°32' W 123°00'0 0.0
2016-Jun-18 07:32N 48°32' W 123°00'0 0.0
2016-Jun-18 06:29N 48°32' W 123°00'0 0.0
2016-Jun-18 05:32N 48°32' W 123°00'0 0.0
2016-Jun-18 04:29N 48°32' W 123°00'0 0.0
2016-Jun-18 03:32N 48°32' W 123°00'0 0.0
2016-Jun-18 02:32N 48°32' W 123°00'0 0.0
2016-Jun-18 01:32N 48°32' W 123°00'0 0.0
2016-Jun-18 00:32N 48°32' W 123°00'0 0.0
2016-Jun-17 23:32N 48°32' W 123°00'0 0.0
2016-Jun-17 22:32N 48°32' W 123°00'0 0.0
2016-Jun-17 21:32N 48°32' W 123°00'1 1.4
2016-Jun-17 20:34N 48°32' W 122°58'10 9.7
2016-Jun-17 19:33N 48°23' W 122°55'26 8.3
2016-Jun-17 16:26N 48°00' W 122°35'8 9.0
2016-Jun-17 15:33N 47°54' W 122°28'9 9.0
2016-Jun-17 14:33N 47°45' W 122°25'5 4.8
2016-Jun-17 13:33N 47°41' W 122°25'0 0.0
2016-Jun-17 12:33N 47°41' W 122°25'0 0.0
2016-Jun-17 11:33N 47°41' W 122°25'0 0.0
2016-Jun-17 10:33N 47°41' W 122°25'0 0.0
2016-Jun-17 09:33N 47°41' W 122°25'0 0.0
2016-Jun-17 08:33N 47°41' W 122°25'0 0.0
2016-Jun-17 07:33N 47°41' W 122°25'0 0.0
2016-Jun-17 06:33N 47°41' W 122°25'0 0.0
2016-Jun-17 05:33N 47°41' W 122°25'0 0.0
2016-Jun-17 04:33N 47°41' W 122°25'0 0.0
2016-Jun-17 03:33N 47°41' W 122°25'0 0.0
2016-Jun-17 02:33N 47°41' W 122°25'0 0.0
2016-Jun-17 01:33N 47°41' W 122°25'0 0.0
2016-Jun-17 00:33N 47°41' W 122°25'0 0.0
2016-Jun-16 23:33N 47°41' W 122°25'0 0.0
2016-Jun-16 22:33N 47°41' W 122°25'0 0.0
2016-Jun-16 21:33N 47°41' W 122°25'0 0.0
2016-Jun-16 20:33N 47°41' W 122°25'0 0.0
2016-Jun-16 19:33N 47°41' W 122°25'0 0.0
2016-Jun-16 18:33N 47°41' W 122°25'0 0.0
2016-Jun-16 17:33N 47°41' W 122°25'0 0.0
2016-Jun-16 16:33N 47°41' W 122°25'0 0.0
2016-Jun-16 15:33N 47°41' W 122°25'0 0.0
2016-Jun-16 14:33N 47°41' W 122°25'0 0.0
2016-Jun-16 13:33N 47°41' W 122°25'0 0.0
2016-Jun-16 12:33N 47°41' W 122°25'0 0.0
2016-Jun-16 11:33N 47°41' W 122°25'0 0.0
2016-Jun-16 10:33N 47°41' W 122°25'0 0.0
2016-Jun-16 09:34N 47°41' W 122°25'0 0.0
2016-Jun-16 08:33N 47°41' W 122°25'0 0.0
2016-Jun-16 07:33N 47°41' W 122°25'0 0.0
2016-Jun-16 06:33N 47°41' W 122°25'0 0.0
2016-Jun-16 05:33N 47°41' W 122°25'0 0.0
2016-Jun-16 04:33N 47°41' W 122°25'0 0.0
2016-Jun-16 03:33N 47°41' W 122°25'0 0.0
2016-Jun-16 02:33N 47°41' W 122°25'0 0.0
2016-Jun-16 01:33N 47°41' W 122°25'0 0.0
2016-Jun-16 00:33N 47°41' W 122°25'0 0.0
2016-Jun-15 23:33N 47°41' W 122°25'0 0.0
2016-Jun-15 22:33N 47°41' W 122°25'0 0.0
2016-Jun-15 21:33N 47°41' W 122°25'0 0.0
2016-Jun-15 20:33N 47°41' W 122°25'0 0.0
2016-Jun-15 19:33N 47°41' W 122°25'0 0.0
2016-Jun-15 18:33N 47°41' W 122°25'  

Dump ship's entire track history